sensor_id;sensor_type;location;lat;lon;timestamp;P1;durP1;ratioP1;P2;durP2;ratioP2
56343;SDS011;42245;42.058;24.700;2023-05-14T00:02:09;9.50;;;5.80;;
56343;SDS011;42245;42.058;24.700;2023-05-14T00:04:34;12.80;;;6.43;;
56343;SDS011;42245;42.058;24.700;2023-05-14T00:07:00;10.25;;;6.43;;
56343;SDS011;42245;42.058;24.700;2023-05-14T00:09:25;9.38;;;6.30;;
56343;SDS011;42245;42.058;24.700;2023-05-14T00:11:51;11.05;;;6.93;;
56343;SDS011;42245;42.058;24.700;2023-05-14T00:14:16;10.73;;;6.35;;
56343;SDS011;42245;42.058;24.700;2023-05-14T00:16:42;9.13;;;6.40;;
56343;SDS011;42245;42.058;24.700;2023-05-14T00:19:07;9.43;;;6.32;;
56343;SDS011;42245;42.058;24.700;2023-05-14T00:21:33;8.73;;;6.68;;
56343;SDS011;42245;42.058;24.700;2023-05-14T00:23:58;8.20;;;6.18;;
56343;SDS011;42245;42.058;24.700;2023-05-14T00:26:24;8.98;;;6.65;;
56343;SDS011;42245;42.058;24.700;2023-05-14T00:28:49;10.27;;;6.93;;
56343;SDS011;42245;42.058;24.700;2023-05-14T00:31:15;9.55;;;6.70;;
56343;SDS011;42245;42.058;24.700;2023-05-14T00:33:40;8.68;;;6.57;;
56343;SDS011;42245;42.058;24.700;2023-05-14T00:36:06;8.23;;;6.63;;
56343;SDS011;42245;42.058;24.700;2023-05-14T00:38:32;10.52;;;6.70;;
56343;SDS011;42245;42.058;24.700;2023-05-14T00:40:57;8.25;;;6.57;;
56343;SDS011;42245;42.058;24.700;2023-05-14T00:43:22;8.68;;;6.20;;
56343;SDS011;42245;42.058;24.700;2023-05-14T00:45:49;7.28;;;6.25;;
56343;SDS011;42245;42.058;24.700;2023-05-14T00:48:16;16.63;;;7.22;;
56343;SDS011;42245;42.058;24.700;2023-05-14T00:50:42;10.35;;;7.70;;
56343;SDS011;42245;42.058;24.700;2023-05-14T00:53:08;9.85;;;7.07;;
56343;SDS011;42245;42.058;24.700;2023-05-14T00:55:37;8.40;;;6.32;;
56343;SDS011;42245;42.058;24.700;2023-05-14T00:58:11;8.07;;;6.57;;
56343;SDS011;42245;42.058;24.700;2023-05-14T01:00:38;8.60;;;6.95;;
56343;SDS011;42245;42.058;24.700;2023-05-14T01:03:04;13.02;;;6.57;;
56343;SDS011;42245;42.058;24.700;2023-05-14T01:05:55;10.13;;;6.47;;
56343;SDS011;42245;42.058;24.700;2023-05-14T01:14:21;9.50;;;6.28;;
56343;SDS011;42245;42.058;24.700;2023-05-14T01:16:51;9.88;;;7.03;;
56343;SDS011;42245;42.058;24.700;2023-05-14T01:19:20;9.38;;;7.13;;
56343;SDS011;42245;42.058;24.700;2023-05-14T01:21:51;14.98;;;7.53;;
56343;SDS011;42245;42.058;24.700;2023-05-14T01:24:16;8.95;;;7.10;;
56343;SDS011;42245;42.058;24.700;2023-05-14T01:26:42;10.63;;;6.93;;
56343;SDS011;42245;42.058;24.700;2023-05-14T01:29:10;11.50;;;7.65;;
56343;SDS011;42245;42.058;24.700;2023-05-14T01:31:41;10.82;;;7.78;;
56343;SDS011;42245;42.058;24.700;2023-05-14T01:34:07;9.60;;;7.25;;
56343;SDS011;42245;42.058;24.700;2023-05-14T01:36:33;11.52;;;7.75;;
56343;SDS011;42245;42.058;24.700;2023-05-14T01:38:59;10.50;;;7.43;;
56343;SDS011;42245;42.058;24.700;2023-05-14T01:41:25;9.82;;;7.65;;
56343;SDS011;42245;42.058;24.700;2023-05-14T01:43:51;11.88;;;7.47;;
56343;SDS011;42245;42.058;24.700;2023-05-14T01:46:17;12.15;;;7.80;;
56343;SDS011;42245;42.058;24.700;2023-05-14T01:48:43;11.63;;;6.97;;
56343;SDS011;42245;42.058;24.700;2023-05-14T01:51:09;12.38;;;7.05;;
56343;SDS011;42245;42.058;24.700;2023-05-14T01:53:34;9.73;;;6.47;;
56343;SDS011;42245;42.058;24.700;2023-05-14T01:56:00;13.00;;;6.85;;
56343;SDS011;42245;42.058;24.700;2023-05-14T01:58:25;8.63;;;6.30;;
56343;SDS011;42245;42.058;24.700;2023-05-14T02:00:51;10.13;;;6.38;;
56343;SDS011;42245;42.058;24.700;2023-05-14T02:03:16;13.25;;;7.35;;
56343;SDS011;42245;42.058;24.700;2023-05-14T02:05:41;10.25;;;6.85;;
56343;SDS011;42245;42.058;24.700;2023-05-14T02:08:07;10.35;;;7.45;;
56343;SDS011;42245;42.058;24.700;2023-05-14T02:10:32;9.10;;;6.93;;
56343;SDS011;42245;42.058;24.700;2023-05-14T02:12:58;9.18;;;6.88;;
56343;SDS011;42245;42.058;24.700;2023-05-14T02:15:23;9.63;;;7.18;;
56343;SDS011;42245;42.058;24.700;2023-05-14T02:17:49;8.50;;;6.97;;
56343;SDS011;42245;42.058;24.700;2023-05-14T02:20:14;10.00;;;6.95;;
56343;SDS011;42245;42.058;24.700;2023-05-14T02:22:40;9.68;;;7.00;;
56343;SDS011;42245;42.058;24.700;2023-05-14T02:25:09;10.85;;;6.80;;
56343;SDS011;42245;42.058;24.700;2023-05-14T02:27:35;10.80;;;6.80;;
56343;SDS011;42245;42.058;24.700;2023-05-14T02:30:01;9.93;;;7.07;;
56343;SDS011;42245;42.058;24.700;2023-05-14T02:32:27;11.02;;;7.20;;
56343;SDS011;42245;42.058;24.700;2023-05-14T02:34:52;9.70;;;6.60;;
56343;SDS011;42245;42.058;24.700;2023-05-14T02:37:17;11.30;;;7.32;;
56343;SDS011;42245;42.058;24.700;2023-05-14T02:39:43;10.25;;;7.22;;
56343;SDS011;42245;42.058;24.700;2023-05-14T02:42:08;11.80;;;6.57;;
56343;SDS011;42245;42.058;24.700;2023-05-14T02:44:34;9.93;;;7.05;;
56343;SDS011;42245;42.058;24.700;2023-05-14T02:46:59;11.98;;;7.00;;
56343;SDS011;42245;42.058;24.700;2023-05-14T02:49:25;10.18;;;7.15;;
56343;SDS011;42245;42.058;24.700;2023-05-14T02:51:50;10.25;;;7.30;;
56343;SDS011;42245;42.058;24.700;2023-05-14T02:54:18;10.85;;;7.43;;
56343;SDS011;42245;42.058;24.700;2023-05-14T02:56:43;10.63;;;7.25;;
56343;SDS011;42245;42.058;24.700;2023-05-14T02:59:09;11.25;;;6.55;;
56343;SDS011;42245;42.058;24.700;2023-05-14T03:01:34;9.50;;;7.32;;
56343;SDS011;42245;42.058;24.700;2023-05-14T03:04:00;14.55;;;7.20;;
56343;SDS011;42245;42.058;24.700;2023-05-14T03:06:25;11.45;;;7.25;;
56343;SDS011;42245;42.058;24.700;2023-05-14T03:08:50;11.75;;;7.20;;
56343;SDS011;42245;42.058;24.700;2023-05-14T03:11:16;11.43;;;7.93;;
56343;SDS011;42245;42.058;24.700;2023-05-14T03:13:41;12.27;;;7.00;;
56343;SDS011;42245;42.058;24.700;2023-05-14T03:16:07;12.23;;;7.10;;
56343;SDS011;42245;42.058;24.700;2023-05-14T03:18:32;13.88;;;7.20;;
56343;SDS011;42245;42.058;24.700;2023-05-14T03:20:58;12.52;;;7.90;;
56343;SDS011;42245;42.058;24.700;2023-05-14T03:23:24;11.93;;;8.18;;
56343;SDS011;42245;42.058;24.700;2023-05-14T03:25:49;12.13;;;8.32;;
56343;SDS011;42245;42.058;24.700;2023-05-14T03:28:15;11.75;;;8.15;;
56343;SDS011;42245;42.058;24.700;2023-05-14T03:30:40;11.00;;;7.95;;
56343;SDS011;42245;42.058;24.700;2023-05-14T03:33:05;14.05;;;7.90;;
56343;SDS011;42245;42.058;24.700;2023-05-14T03:35:31;11.90;;;8.13;;
56343;SDS011;42245;42.058;24.700;2023-05-14T03:37:57;12.57;;;8.50;;
56343;SDS011;42245;42.058;24.700;2023-05-14T03:40:23;11.90;;;8.35;;
56343;SDS011;42245;42.058;24.700;2023-05-14T03:42:49;11.63;;;8.27;;
56343;SDS011;42245;42.058;24.700;2023-05-14T03:45:14;11.73;;;8.40;;
56343;SDS011;42245;42.058;24.700;2023-05-14T03:47:40;15.48;;;8.48;;
56343;SDS011;42245;42.058;24.700;2023-05-14T03:50:06;16.60;;;8.75;;
56343;SDS011;42245;42.058;24.700;2023-05-14T03:52:32;14.65;;;9.13;;
56343;SDS011;42245;42.058;24.700;2023-05-14T03:54:57;13.75;;;9.52;;
56343;SDS011;42245;42.058;24.700;2023-05-14T03:57:23;13.90;;;9.63;;
56343;SDS011;42245;42.058;24.700;2023-05-14T03:59:48;12.00;;;9.25;;
56343;SDS011;42245;42.058;24.700;2023-05-14T04:02:13;15.63;;;9.43;;
56343;SDS011;42245;42.058;24.700;2023-05-14T04:04:39;12.50;;;9.02;;
56343;SDS011;42245;42.058;24.700;2023-05-14T04:07:06;12.90;;;9.23;;
56343;SDS011;42245;42.058;24.700;2023-05-14T04:09:32;12.35;;;9.48;;
56343;SDS011;42245;42.058;24.700;2023-05-14T04:11:58;20.35;;;9.35;;
56343;SDS011;42245;42.058;24.700;2023-05-14T04:14:23;12.90;;;8.88;;
56343;SDS011;42245;42.058;24.700;2023-05-14T04:16:49;14.02;;;9.27;;
56343;SDS011;42245;42.058;24.700;2023-05-14T04:19:14;11.60;;;9.50;;
56343;SDS011;42245;42.058;24.700;2023-05-14T04:21:40;14.73;;;10.20;;
56343;SDS011;42245;42.058;24.700;2023-05-14T04:24:05;13.30;;;9.13;;
56343;SDS011;42245;42.058;24.700;2023-05-14T04:26:31;14.60;;;9.73;;
56343;SDS011;42245;42.058;24.700;2023-05-14T04:28:57;13.88;;;9.82;;
56343;SDS011;42245;42.058;24.700;2023-05-14T04:31:26;14.95;;;9.85;;
56343;SDS011;42245;42.058;24.700;2023-05-14T04:33:52;14.70;;;9.88;;
56343;SDS011;42245;42.058;24.700;2023-05-14T04:36:17;14.90;;;10.35;;
56343;SDS011;42245;42.058;24.700;2023-05-14T04:38:43;14.38;;;9.82;;
56343;SDS011;42245;42.058;24.700;2023-05-14T04:41:09;13.18;;;8.82;;
56343;SDS011;42245;42.058;24.700;2023-05-14T04:43:34;16.15;;;9.38;;
56343;SDS011;42245;42.058;24.700;2023-05-14T04:45:59;20.88;;;9.13;;
56343;SDS011;42245;42.058;24.700;2023-05-14T04:48:25;12.55;;;9.15;;
56343;SDS011;42245;42.058;24.700;2023-05-14T04:50:51;13.63;;;9.13;;
56343;SDS011;42245;42.058;24.700;2023-05-14T04:53:17;13.23;;;9.82;;
56343;SDS011;42245;42.058;24.700;2023-05-14T04:55:42;13.73;;;9.10;;
56343;SDS011;42245;42.058;24.700;2023-05-14T04:58:08;13.70;;;9.20;;
56343;SDS011;42245;42.058;24.700;2023-05-14T05:00:33;15.15;;;9.52;;
56343;SDS011;42245;42.058;24.700;2023-05-14T05:02:59;12.43;;;9.98;;
56343;SDS011;42245;42.058;24.700;2023-05-14T05:05:24;13.23;;;9.32;;
56343;SDS011;42245;42.058;24.700;2023-05-14T05:07:49;12.15;;;9.00;;
56343;SDS011;42245;42.058;24.700;2023-05-14T05:10:15;15.77;;;8.25;;
56343;SDS011;42245;42.058;24.700;2023-05-14T05:12:40;13.05;;;8.25;;
56343;SDS011;42245;42.058;24.700;2023-05-14T05:15:06;11.80;;;8.27;;
56343;SDS011;42245;42.058;24.700;2023-05-14T05:17:33;12.05;;;9.57;;
56343;SDS011;42245;42.058;24.700;2023-05-14T05:19:59;13.25;;;9.07;;
56343;SDS011;42245;42.058;24.700;2023-05-14T05:22:24;12.07;;;8.98;;
56343;SDS011;42245;42.058;24.700;2023-05-14T05:24:50;13.30;;;8.95;;
56343;SDS011;42245;42.058;24.700;2023-05-14T05:27:15;10.95;;;8.43;;
56343;SDS011;42245;42.058;24.700;2023-05-14T05:29:40;11.13;;;8.95;;
56343;SDS011;42245;42.058;24.700;2023-05-14T05:32:06;15.00;;;8.95;;
56343;SDS011;42245;42.058;24.700;2023-05-14T05:34:32;12.75;;;9.10;;
56343;SDS011;42245;42.058;24.700;2023-05-14T05:36:58;11.77;;;9.57;;
56343;SDS011;42245;42.058;24.700;2023-05-14T05:39:23;14.93;;;10.25;;
56343;SDS011;42245;42.058;24.700;2023-05-14T05:41:49;16.13;;;9.73;;
56343;SDS011;42245;42.058;24.700;2023-05-14T05:44:14;18.52;;;10.48;;
56343;SDS011;42245;42.058;24.700;2023-05-14T05:46:40;14.88;;;10.02;;
56343;SDS011;42245;42.058;24.700;2023-05-14T05:49:05;19.52;;;10.25;;
56343;SDS011;42245;42.058;24.700;2023-05-14T05:51:31;18.02;;;10.40;;
56343;SDS011;42245;42.058;24.700;2023-05-14T05:53:57;21.17;;;12.80;;
56343;SDS011;42245;42.058;24.700;2023-05-14T05:56:22;14.40;;;9.68;;
56343;SDS011;42245;42.058;24.700;2023-05-14T05:58:48;16.05;;;9.00;;
56343;SDS011;42245;42.058;24.700;2023-05-14T06:01:13;16.80;;;9.40;;
56343;SDS011;42245;42.058;24.700;2023-05-14T06:03:39;13.32;;;8.88;;
56343;SDS011;42245;42.058;24.700;2023-05-14T06:06:04;16.45;;;10.55;;
56343;SDS011;42245;42.058;24.700;2023-05-14T06:08:30;14.40;;;9.38;;
56343;SDS011;42245;42.058;24.700;2023-05-14T06:10:56;14.98;;;9.23;;
56343;SDS011;42245;42.058;24.700;2023-05-14T06:13:21;14.43;;;9.30;;
56343;SDS011;42245;42.058;24.700;2023-05-14T06:15:47;17.90;;;10.07;;
56343;SDS011;42245;42.058;24.700;2023-05-14T06:18:12;16.27;;;10.02;;
56343;SDS011;42245;42.058;24.700;2023-05-14T06:20:38;15.85;;;10.07;;
56343;SDS011;42245;42.058;24.700;2023-05-14T06:23:05;15.45;;;10.23;;
56343;SDS011;42245;42.058;24.700;2023-05-14T06:25:31;12.50;;;10.27;;
56343;SDS011;42245;42.058;24.700;2023-05-14T06:27:57;16.58;;;11.05;;
56343;SDS011;42245;42.058;24.700;2023-05-14T06:30:22;13.65;;;11.10;;
56343;SDS011;42245;42.058;24.700;2023-05-14T06:32:48;15.35;;;11.18;;
56343;SDS011;42245;42.058;24.700;2023-05-14T06:35:13;17.35;;;11.70;;
56343;SDS011;42245;42.058;24.700;2023-05-14T06:37:39;22.23;;;13.38;;
56343;SDS011;42245;42.058;24.700;2023-05-14T06:40:04;21.13;;;15.38;;
56343;SDS011;42245;42.058;24.700;2023-05-14T06:42:30;19.80;;;13.20;;
56343;SDS011;42245;42.058;24.700;2023-05-14T06:44:56;17.90;;;10.68;;
56343;SDS011;42245;42.058;24.700;2023-05-14T06:47:21;16.30;;;10.80;;
56343;SDS011;42245;42.058;24.700;2023-05-14T06:49:46;15.77;;;11.05;;
56343;SDS011;42245;42.058;24.700;2023-05-14T06:52:12;16.65;;;11.18;;
56343;SDS011;42245;42.058;24.700;2023-05-14T06:54:37;17.25;;;11.25;;
56343;SDS011;42245;42.058;24.700;2023-05-14T06:57:03;19.67;;;11.80;;
56343;SDS011;42245;42.058;24.700;2023-05-14T06:59:29;15.20;;;11.68;;
56343;SDS011;42245;42.058;24.700;2023-05-14T07:01:54;15.77;;;12.45;;
56343;SDS011;42245;42.058;24.700;2023-05-14T07:04:20;18.35;;;13.15;;
56343;SDS011;42245;42.058;24.700;2023-05-14T07:06:45;16.58;;;13.00;;
56343;SDS011;42245;42.058;24.700;2023-05-14T07:09:10;17.52;;;12.93;;
56343;SDS011;42245;42.058;24.700;2023-05-14T07:11:37;19.98;;;13.38;;
56343;SDS011;42245;42.058;24.700;2023-05-14T07:14:02;17.50;;;13.68;;
56343;SDS011;42245;42.058;24.700;2023-05-14T07:16:28;18.10;;;13.43;;
56343;SDS011;42245;42.058;24.700;2023-05-14T07:18:53;18.73;;;12.13;;
56343;SDS011;42245;42.058;24.700;2023-05-14T07:21:18;18.85;;;13.20;;
56343;SDS011;42245;42.058;24.700;2023-05-14T07:23:44;23.70;;;13.95;;
56343;SDS011;42245;42.058;24.700;2023-05-14T07:26:09;21.27;;;14.27;;
56343;SDS011;42245;42.058;24.700;2023-05-14T07:28:35;23.55;;;16.48;;
56343;SDS011;42245;42.058;24.700;2023-05-14T07:31:00;26.13;;;16.63;;
56343;SDS011;42245;42.058;24.700;2023-05-14T07:33:28;24.75;;;18.38;;
56343;SDS011;42245;42.058;24.700;2023-05-14T07:35:54;25.13;;;16.63;;
56343;SDS011;42245;42.058;24.700;2023-05-14T07:38:19;22.95;;;17.95;;
56343;SDS011;42245;42.058;24.700;2023-05-14T07:40:45;30.73;;;18.85;;
56343;SDS011;42245;42.058;24.700;2023-05-14T07:43:11;35.97;;;21.25;;
56343;SDS011;42245;42.058;24.700;2023-05-14T07:45:36;29.10;;;20.85;;
56343;SDS011;42245;42.058;24.700;2023-05-14T07:48:05;31.75;;;20.70;;
56343;SDS011;42245;42.058;24.700;2023-05-14T07:50:30;25.08;;;18.33;;
56343;SDS011;42245;42.058;24.700;2023-05-14T07:52:56;30.33;;;18.95;;
56343;SDS011;42245;42.058;24.700;2023-05-14T07:55:22;26.63;;;18.70;;
56343;SDS011;42245;42.058;24.700;2023-05-14T07:57:47;28.67;;;18.92;;
56343;SDS011;42245;42.058;24.700;2023-05-14T08:00:13;27.55;;;19.90;;
56343;SDS011;42245;42.058;24.700;2023-05-14T08:02:39;30.90;;;20.30;;
56343;SDS011;42245;42.058;24.700;2023-05-14T08:05:06;26.75;;;19.27;;
56343;SDS011;42245;42.058;24.700;2023-05-14T08:07:33;29.95;;;18.33;;
56343;SDS011;42245;42.058;24.700;2023-05-14T08:09:58;25.20;;;17.30;;
56343;SDS011;42245;42.058;24.700;2023-05-14T08:12:24;25.92;;;19.38;;
56343;SDS011;42245;42.058;24.700;2023-05-14T08:14:50;23.25;;;18.08;;
56343;SDS011;42245;42.058;24.700;2023-05-14T08:17:16;22.13;;;18.38;;
56343;SDS011;42245;42.058;24.700;2023-05-14T08:19:41;26.98;;;19.40;;
56343;SDS011;42245;42.058;24.700;2023-05-14T08:22:07;24.75;;;18.20;;
56343;SDS011;42245;42.058;24.700;2023-05-14T08:24:33;26.65;;;18.33;;
56343;SDS011;42245;42.058;24.700;2023-05-14T08:26:58;25.00;;;17.83;;
56343;SDS011;42245;42.058;24.700;2023-05-14T08:29:24;24.60;;;17.33;;
56343;SDS011;42245;42.058;24.700;2023-05-14T08:31:50;23.48;;;17.67;;
56343;SDS011;42245;42.058;24.700;2023-05-14T08:34:15;25.10;;;17.15;;
56343;SDS011;42245;42.058;24.700;2023-05-14T08:36:41;24.23;;;16.55;;
56343;SDS011;42245;42.058;24.700;2023-05-14T08:39:06;27.13;;;17.40;;
56343;SDS011;42245;42.058;24.700;2023-05-14T08:41:32;23.65;;;16.77;;
56343;SDS011;42245;42.058;24.700;2023-05-14T08:46:36;22.50;;;16.10;;
56343;SDS011;42245;42.058;24.700;2023-05-14T08:49:51;27.67;;;18.23;;
56343;SDS011;42245;42.058;24.700;2023-05-14T08:52:07;26.23;;;20.17;;
56343;SDS011;42245;42.058;24.700;2023-05-14T08:54:34;25.42;;;17.90;;
56343;SDS011;42245;42.058;24.700;2023-05-14T08:56:59;28.55;;;18.05;;
56343;SDS011;42245;42.058;24.700;2023-05-14T08:59:25;27.33;;;19.58;;
56343;SDS011;42245;42.058;24.700;2023-05-14T09:01:51;29.00;;;20.30;;
56343;SDS011;42245;42.058;24.700;2023-05-14T09:04:21;29.42;;;20.52;;
56343;SDS011;42245;42.058;24.700;2023-05-14T09:06:48;29.38;;;21.13;;
56343;SDS011;42245;42.058;24.700;2023-05-14T09:09:17;30.42;;;20.63;;
56343;SDS011;42245;42.058;24.700;2023-05-14T09:11:46;29.63;;;20.08;;
56343;SDS011;42245;42.058;24.700;2023-05-14T09:14:12;27.17;;;19.98;;
56343;SDS011;42245;42.058;24.700;2023-05-14T09:16:38;30.70;;;21.83;;
56343;SDS011;42245;42.058;24.700;2023-05-14T09:19:05;28.08;;;21.60;;
56343;SDS011;42245;42.058;24.700;2023-05-14T09:21:31;28.33;;;21.60;;
56343;SDS011;42245;42.058;24.700;2023-05-14T09:23:57;27.67;;;21.27;;
56343;SDS011;42245;42.058;24.700;2023-05-14T09:26:23;27.95;;;21.58;;
56343;SDS011;42245;42.058;24.700;2023-05-14T09:28:53;28.02;;;20.83;;
56343;SDS011;42245;42.058;24.700;2023-05-14T09:31:20;28.35;;;21.88;;
56343;SDS011;42245;42.058;24.700;2023-05-14T09:33:49;27.48;;;21.13;;
56343;SDS011;42245;42.058;24.700;2023-05-14T09:36:15;30.25;;;22.48;;
56343;SDS011;42245;42.058;24.700;2023-05-14T09:38:41;28.35;;;21.45;;
56343;SDS011;42245;42.058;24.700;2023-05-14T09:41:06;29.05;;;21.38;;
56343;SDS011;42245;42.058;24.700;2023-05-14T09:43:32;30.05;;;21.83;;
56343;SDS011;42245;42.058;24.700;2023-05-14T09:45:57;27.33;;;21.15;;
56343;SDS011;42245;42.058;24.700;2023-05-14T09:48:23;29.48;;;20.55;;
56343;SDS011;42245;42.058;24.700;2023-05-14T09:50:49;36.70;;;24.35;;
56343;SDS011;42245;42.058;24.700;2023-05-14T09:53:16;33.42;;;23.52;;
56343;SDS011;42245;42.058;24.700;2023-05-14T09:55:41;30.98;;;22.63;;
56343;SDS011;42245;42.058;24.700;2023-05-14T09:58:07;29.52;;;22.70;;
56343;SDS011;42245;42.058;24.700;2023-05-14T10:00:33;28.92;;;23.02;;
56343;SDS011;42245;42.058;24.700;2023-05-14T10:03:01;31.27;;;22.50;;
56343;SDS011;42245;42.058;24.700;2023-05-14T10:05:30;33.55;;;22.40;;
56343;SDS011;42245;42.058;24.700;2023-05-14T10:07:58;35.22;;;25.55;;
56343;SDS011;42245;42.058;24.700;2023-05-14T10:10:25;32.53;;;23.38;;
56343;SDS011;42245;42.058;24.700;2023-05-14T10:12:56;36.45;;;22.77;;
56343;SDS011;42245;42.058;24.700;2023-05-14T10:15:23;31.40;;;23.45;;
56343;SDS011;42245;42.058;24.700;2023-05-14T10:17:54;38.20;;;28.33;;
56343;SDS011;42245;42.058;24.700;2023-05-14T10:20:21;36.30;;;27.70;;
56343;SDS011;42245;42.058;24.700;2023-05-14T10:22:47;32.83;;;24.58;;
56343;SDS011;42245;42.058;24.700;2023-05-14T10:25:13;33.47;;;22.05;;
56343;SDS011;42245;42.058;24.700;2023-05-14T10:27:39;26.70;;;20.00;;
56343;SDS011;42245;42.058;24.700;2023-05-14T10:30:05;26.67;;;20.08;;
56343;SDS011;42245;42.058;24.700;2023-05-14T10:32:35;32.33;;;22.98;;
56343;SDS011;42245;42.058;24.700;2023-05-14T10:35:06;28.98;;;21.02;;
56343;SDS011;42245;42.058;24.700;2023-05-14T10:37:40;34.33;;;21.65;;
56343;SDS011;42245;42.058;24.700;2023-05-14T10:40:05;36.42;;;23.10;;
56343;SDS011;42245;42.058;24.700;2023-05-14T10:42:33;29.63;;;20.25;;
56343;SDS011;42245;42.058;24.700;2023-05-14T10:45:00;26.13;;;20.50;;
56343;SDS011;42245;42.058;24.700;2023-05-14T10:47:31;26.83;;;19.85;;
56343;SDS011;42245;42.058;24.700;2023-05-14T10:49:58;25.48;;;19.73;;
56343;SDS011;42245;42.058;24.700;2023-05-14T10:52:25;28.13;;;19.92;;
56343;SDS011;42245;42.058;24.700;2023-05-14T10:55:00;28.55;;;20.45;;
56343;SDS011;42245;42.058;24.700;2023-05-14T10:57:33;27.50;;;20.90;;
56343;SDS011;42245;42.058;24.700;2023-05-14T11:00:00;29.65;;;21.08;;
56343;SDS011;42245;42.058;24.700;2023-05-14T11:04:56;27.35;;;21.52;;
56343;SDS011;42245;42.058;24.700;2023-05-14T11:07:33;27.55;;;20.90;;
56343;SDS011;42245;42.058;24.700;2023-05-14T11:10:00;29.58;;;22.40;;
56343;SDS011;42245;42.058;24.700;2023-05-14T11:12:30;32.55;;;22.15;;
56343;SDS011;42245;42.058;24.700;2023-05-14T11:14:56;24.98;;;20.92;;
56343;SDS011;42245;42.058;24.700;2023-05-14T11:17:24;27.98;;;22.55;;
56343;SDS011;42245;42.058;24.700;2023-05-14T11:19:53;31.00;;;23.33;;
56343;SDS011;42245;42.058;24.700;2023-05-14T11:22:19;31.42;;;24.42;;
56343;SDS011;42245;42.058;24.700;2023-05-14T11:24:45;28.92;;;23.20;;
56343;SDS011;42245;42.058;24.700;2023-05-14T11:27:10;29.65;;;22.15;;
56343;SDS011;42245;42.058;24.700;2023-05-14T11:29:36;35.20;;;25.50;;
56343;SDS011;42245;42.058;24.700;2023-05-14T11:32:03;32.65;;;23.85;;
56343;SDS011;42245;42.058;24.700;2023-05-14T11:34:29;33.28;;;23.52;;
56343;SDS011;42245;42.058;24.700;2023-05-14T11:36:55;32.15;;;23.58;;
56343;SDS011;42245;42.058;24.700;2023-05-14T11:39:20;34.58;;;24.23;;
56343;SDS011;42245;42.058;24.700;2023-05-14T11:41:45;34.03;;;25.20;;
56343;SDS011;42245;42.058;24.700;2023-05-14T11:44:11;36.83;;;27.15;;
56343;SDS011;42245;42.058;24.700;2023-05-14T11:46:36;35.97;;;25.60;;
56343;SDS011;42245;42.058;24.700;2023-05-14T11:49:05;34.05;;;26.17;;
56343;SDS011;42245;42.058;24.700;2023-05-14T11:51:31;36.70;;;26.23;;
56343;SDS011;42245;42.058;24.700;2023-05-14T11:53:56;34.30;;;26.60;;
56343;SDS011;42245;42.058;24.700;2023-05-14T11:56:24;33.78;;;24.80;;
56343;SDS011;42245;42.058;24.700;2023-05-14T11:58:56;35.45;;;24.90;;
56343;SDS011;42245;42.058;24.700;2023-05-14T12:01:22;30.15;;;22.90;;
56343;SDS011;42245;42.058;24.700;2023-05-14T12:03:47;32.17;;;23.63;;
56343;SDS011;42245;42.058;24.700;2023-05-14T12:06:14;38.90;;;24.45;;
56343;SDS011;42245;42.058;24.700;2023-05-14T12:08:39;30.23;;;22.90;;
56343;SDS011;42245;42.058;24.700;2023-05-14T12:11:05;33.08;;;22.73;;
56343;SDS011;42245;42.058;24.700;2023-05-14T12:13:31;36.72;;;24.90;;
56343;SDS011;42245;42.058;24.700;2023-05-14T12:15:58;40.47;;;26.90;;
56343;SDS011;42245;42.058;24.700;2023-05-14T12:18:26;38.50;;;26.88;;
56343;SDS011;42245;42.058;24.700;2023-05-14T12:20:53;33.55;;;24.80;;
56343;SDS011;42245;42.058;24.700;2023-05-14T12:23:26;34.65;;;24.65;;
56343;SDS011;42245;42.058;24.700;2023-05-14T12:25:52;37.90;;;25.88;;
56343;SDS011;42245;42.058;24.700;2023-05-14T12:28:18;41.10;;;28.85;;
56343;SDS011;42245;42.058;24.700;2023-05-14T12:30:44;39.92;;;28.33;;
56343;SDS011;42245;42.058;24.700;2023-05-14T12:33:11;36.10;;;26.90;;
56343;SDS011;42245;42.058;24.700;2023-05-14T12:35:37;34.53;;;25.98;;
56343;SDS011;42245;42.058;24.700;2023-05-14T12:38:03;39.72;;;27.58;;
56343;SDS011;42245;42.058;24.700;2023-05-14T12:40:28;40.05;;;28.35;;
56343;SDS011;42245;42.058;24.700;2023-05-14T12:42:54;42.28;;;29.83;;
56343;SDS011;42245;42.058;24.700;2023-05-14T12:45:19;44.70;;;30.85;;
56343;SDS011;42245;42.058;24.700;2023-05-14T12:47:45;48.20;;;33.28;;
56343;SDS011;42245;42.058;24.700;2023-05-14T12:50:10;40.33;;;30.45;;
56343;SDS011;42245;42.058;24.700;2023-05-14T12:52:36;43.50;;;30.13;;
56343;SDS011;42245;42.058;24.700;2023-05-14T12:55:01;39.15;;;29.15;;
56343;SDS011;42245;42.058;24.700;2023-05-14T12:57:27;53.75;;;34.17;;
56343;SDS011;42245;42.058;24.700;2023-05-14T12:59:54;50.63;;;33.92;;
56343;SDS011;42245;42.058;24.700;2023-05-14T13:02:20;53.25;;;37.63;;
56343;SDS011;42245;42.058;24.700;2023-05-14T13:04:46;53.25;;;38.38;;
56343;SDS011;42245;42.058;24.700;2023-05-14T13:07:11;55.40;;;38.83;;
56343;SDS011;42245;42.058;24.700;2023-05-14T13:09:36;53.83;;;37.67;;
56343;SDS011;42245;42.058;24.700;2023-05-14T13:12:02;55.50;;;38.42;;
56343;SDS011;42245;42.058;24.700;2023-05-14T13:14:28;57.97;;;37.92;;
56343;SDS011;42245;42.058;24.700;2023-05-14T13:16:53;52.97;;;36.35;;
56343;SDS011;42245;42.058;24.700;2023-05-14T13:19:19;53.03;;;37.47;;
56343;SDS011;42245;42.058;24.700;2023-05-14T13:21:44;54.58;;;38.67;;
56343;SDS011;42245;42.058;24.700;2023-05-14T13:24:10;56.65;;;37.75;;
56343;SDS011;42245;42.058;24.700;2023-05-14T13:26:36;58.72;;;40.22;;
56343;SDS011;42245;42.058;24.700;2023-05-14T13:29:01;60.25;;;39.72;;
56343;SDS011;42245;42.058;24.700;2023-05-14T13:31:27;62.15;;;41.47;;
56343;SDS011;42245;42.058;24.700;2023-05-14T13:33:52;55.03;;;38.88;;
56343;SDS011;42245;42.058;24.700;2023-05-14T13:36:18;49.08;;;33.47;;
56343;SDS011;42245;42.058;24.700;2023-05-14T13:38:43;54.30;;;36.28;;
56343;SDS011;42245;42.058;24.700;2023-05-14T13:41:10;57.17;;;38.47;;
56343;SDS011;42245;42.058;24.700;2023-05-14T13:43:35;58.20;;;38.45;;
56343;SDS011;42245;42.058;24.700;2023-05-14T13:46:01;62.20;;;41.70;;
56343;SDS011;42245;42.058;24.700;2023-05-14T13:48:28;54.85;;;35.08;;
56343;SDS011;42245;42.058;24.700;2023-05-14T13:50:55;49.85;;;35.50;;
56343;SDS011;42245;42.058;24.700;2023-05-14T13:53:21;50.85;;;35.95;;
56343;SDS011;42245;42.058;24.700;2023-05-14T13:55:47;55.45;;;39.25;;
56343;SDS011;42245;42.058;24.700;2023-05-14T13:58:13;53.40;;;36.55;;
56343;SDS011;42245;42.058;24.700;2023-05-14T14:00:38;53.42;;;36.30;;
56343;SDS011;42245;42.058;24.700;2023-05-14T14:03:04;49.90;;;35.63;;
56343;SDS011;42245;42.058;24.700;2023-05-14T14:05:29;49.72;;;35.83;;
56343;SDS011;42245;42.058;24.700;2023-05-14T14:07:55;51.22;;;37.72;;
56343;SDS011;42245;42.058;24.700;2023-05-14T14:10:21;55.75;;;37.80;;
56343;SDS011;42245;42.058;24.700;2023-05-14T14:12:47;50.53;;;34.25;;
56343;SDS011;42245;42.058;24.700;2023-05-14T14:15:13;47.83;;;31.85;;
56343;SDS011;42245;42.058;24.700;2023-05-14T14:17:39;48.17;;;34.00;;
56343;SDS011;42245;42.058;24.700;2023-05-14T14:20:06;73.10;;;42.83;;
56343;SDS011;42245;42.058;24.700;2023-05-14T14:22:32;59.13;;;39.22;;